createdAt,value
2019-03-08T00:11:47.201Z,41.1
2019-03-08T00:26:50.235Z,40.8
2019-03-08T00:42:14.758Z,40.9
2019-03-08T00:57:28.660Z,40.9
2019-03-08T01:12:42.444Z,41.6
2019-03-08T01:27:56.276Z,43
2019-03-08T01:43:05.128Z,43.7
2019-03-08T01:58:23.809Z,43.4
2019-03-08T02:13:37.601Z,42.5
2019-03-08T02:28:51.479Z,40.5
2019-03-08T02:43:52.863Z,38.8
2019-03-08T02:59:19.339Z,38.2
2019-03-08T03:14:33.314Z,37.8
2019-03-08T03:29:47.367Z,37.4
2019-03-08T03:45:03.345Z,37.7
2019-03-08T04:00:08.554Z,38.6
2019-03-08T04:15:29.383Z,38.2
2019-03-08T04:30:43.299Z,37.8
2019-03-08T04:45:57.252Z,37.7
2019-03-08T05:01:11.166Z,37.8
2019-03-08T05:16:24.296Z,37.6
2019-03-08T05:31:38.981Z,38
2019-03-08T05:46:52.815Z,38.9
2019-03-08T06:02:06.776Z,38.7
2019-03-08T06:17:11.888Z,37.9
2019-03-08T06:32:34.447Z,37.7
2019-03-08T06:47:48.374Z,37
2019-03-08T07:03:02.351Z,34.2
2019-03-08T07:18:16.364Z,33.5
2019-03-08T07:33:28.390Z,33.5
2019-03-08T07:48:44.287Z,33.9
2019-03-08T08:03:59.028Z,33.6
2019-03-08T08:19:12.625Z,32.4
2019-03-08T08:34:18.238Z,32.8
2019-03-08T08:49:41.058Z,32.9
2019-03-08T09:04:55.355Z,33
2019-03-08T09:20:09.697Z,33.5
2019-03-08T09:35:24.058Z,32.9
2019-03-08T09:50:35.541Z,33.6
2019-03-08T10:05:52.875Z,33.4
2019-03-08T10:21:07.246Z,33.9
2019-03-08T10:36:21.667Z,33.9
2019-03-08T10:51:25.765Z,33.7
2019-03-08T11:06:50.639Z,33.4
2019-03-08T11:22:05.328Z,34.8
2019-03-08T11:37:19.547Z,38.4
2019-03-08T11:52:33.795Z,39.7
2019-03-08T12:07:47.582Z,40.4
2019-03-08T12:23:02.306Z,42.4
2019-03-08T12:38:16.510Z,43.5
2019-03-08T12:53:30.788Z,46.4
2019-03-08T13:08:33.969Z,46
2019-03-08T13:23:59.496Z,44.2
2019-03-08T13:39:13.803Z,41.1
2019-03-08T13:54:27.994Z,41.1
2019-03-08T14:09:42.756Z,41.1
2019-03-08T14:24:52.606Z,39
2019-03-08T14:40:11.442Z,39.2
2019-03-08T14:55:25.922Z,38.5
2019-03-08T15:10:47.050Z,41.5
2019-03-08T15:25:54.180Z,55.5
2019-03-08T15:41:07.312Z,69.2
2019-03-08T15:56:20.504Z,64.9
2019-03-08T16:11:33.768Z,65.5
2019-03-08T16:26:47.677Z,66.1
2019-03-08T16:41:57.464Z,66
2019-03-08T16:57:13.342Z,64
2019-03-08T17:12:26.520Z,66.3
2019-03-08T17:27:40.219Z,64.6
2019-03-08T17:42:42.918Z,64.4
2019-03-08T17:58:05.741Z,66.3
2019-03-08T18:13:18.763Z,66.6
2019-03-08T18:28:31.842Z,67.4
2019-03-08T18:43:44.900Z,69.5
2019-03-08T18:58:56.618Z,69.5
2019-03-08T19:14:11.131Z,70.6
2019-03-08T19:29:24.348Z,70.2
2019-03-08T19:44:37.434Z,68.7
2019-03-08T19:59:43.055Z,61.9
2019-03-08T20:15:03.793Z,62.7
2019-03-08T20:30:17.354Z,57.5
2019-03-08T20:45:30.407Z,60.1
2019-03-08T21:00:43.400Z,61.3
2019-03-08T21:15:56.009Z,62.1
2019-03-08T21:31:09.301Z,62.2
2019-03-08T21:46:21.967Z,62.3
2019-03-08T22:01:34.769Z,62.8
2019-03-08T22:16:40.689Z,61.2
2019-03-08T22:32:00.537Z,60.5
2019-03-08T22:47:13.189Z,59.5
2019-03-08T23:02:26.030Z,58.8
2019-03-08T23:17:39.071Z,58.1
2019-03-08T23:32:52.049Z,58.5
2019-03-08T23:48:05.169Z,57.8
